sensor_id;sensor_type;location;lat;lon;timestamp;P1;durP1;ratioP1;P2;durP2;ratioP2
18973;SDS011;9621;48.690;9.466;2023-06-22T00:00:13;11.27;;;8.30;;
18973;SDS011;9621;48.690;9.466;2023-06-22T00:02:40;12.95;;;8.85;;
18973;SDS011;9621;48.690;9.466;2023-06-22T00:05:07;13.50;;;9.30;;
18973;SDS011;9621;48.690;9.466;2023-06-22T00:07:35;12.18;;;8.57;;
18973;SDS011;9621;48.690;9.466;2023-06-22T00:10:02;11.88;;;9.30;;
18973;SDS011;9621;48.690;9.466;2023-06-22T00:12:29;12.13;;;8.52;;
18973;SDS011;9621;48.690;9.466;2023-06-22T00:14:57;15.40;;;9.70;;
18973;SDS011;9621;48.690;9.466;2023-06-22T00:17:24;13.32;;;9.73;;
18973;SDS011;9621;48.690;9.466;2023-06-22T00:19:50;14.32;;;9.00;;
18973;SDS011;9621;48.690;9.466;2023-06-22T00:22:20;10.75;;;9.27;;
18973;SDS011;9621;48.690;9.466;2023-06-22T00:24:54;13.30;;;8.80;;
18973;SDS011;9621;48.690;9.466;2023-06-22T00:27:21;12.73;;;8.95;;
18973;SDS011;9621;48.690;9.466;2023-06-22T00:29:48;15.10;;;9.38;;
18973;SDS011;9621;48.690;9.466;2023-06-22T00:32:15;21.83;;;9.52;;
18973;SDS011;9621;48.690;9.466;2023-06-22T00:34:43;14.63;;;9.75;;
18973;SDS011;9621;48.690;9.466;2023-06-22T00:37:10;13.25;;;9.80;;
18973;SDS011;9621;48.690;9.466;2023-06-22T00:39:37;13.02;;;9.27;;
18973;SDS011;9621;48.690;9.466;2023-06-22T00:42:06;15.85;;;9.25;;
18973;SDS011;9621;48.690;9.466;2023-06-22T00:44:33;10.45;;;8.40;;
18973;SDS011;9621;48.690;9.466;2023-06-22T00:47:00;11.48;;;8.68;;
18973;SDS011;9621;48.690;9.466;2023-06-22T00:49:27;13.10;;;9.18;;
18973;SDS011;9621;48.690;9.466;2023-06-22T00:51:55;10.23;;;8.55;;
18973;SDS011;9621;48.690;9.466;2023-06-22T00:54:23;14.73;;;8.85;;
18973;SDS011;9621;48.690;9.466;2023-06-22T00:56:51;17.30;;;8.85;;
18973;SDS011;9621;48.690;9.466;2023-06-22T00:59:21;12.27;;;7.80;;
18973;SDS011;9621;48.690;9.466;2023-06-22T01:01:49;12.18;;;8.30;;
18973;SDS011;9621;48.690;9.466;2023-06-22T01:04:16;13.98;;;8.18;;
18973;SDS011;9621;48.690;9.466;2023-06-22T01:06:45;10.90;;;7.90;;
18973;SDS011;9621;48.690;9.466;2023-06-22T01:09:19;10.90;;;8.38;;
18973;SDS011;9621;48.690;9.466;2023-06-22T01:11:52;10.93;;;7.93;;
18973;SDS011;9621;48.690;9.466;2023-06-22T01:14:24;13.88;;;8.63;;
18973;SDS011;9621;48.690;9.466;2023-06-22T01:16:56;14.95;;;8.80;;
18973;SDS011;9621;48.690;9.466;2023-06-22T01:19:29;10.23;;;8.10;;
18973;SDS011;9621;48.690;9.466;2023-06-22T01:22:04;10.75;;;7.82;;
18973;SDS011;9621;48.690;9.466;2023-06-22T01:24:40;9.38;;;7.88;;
18973;SDS011;9621;48.690;9.466;2023-06-22T01:27:18;12.43;;;8.88;;
18973;SDS011;9621;48.690;9.466;2023-06-22T01:29:56;10.35;;;8.10;;
18973;SDS011;9621;48.690;9.466;2023-06-22T01:32:26;10.90;;;8.38;;
18973;SDS011;9621;48.690;9.466;2023-06-22T01:34:54;11.43;;;8.40;;
18973;SDS011;9621;48.690;9.466;2023-06-22T01:37:21;10.30;;;8.20;;
18973;SDS011;9621;48.690;9.466;2023-06-22T01:39:48;13.30;;;8.82;;
18973;SDS011;9621;48.690;9.466;2023-06-22T01:42:16;12.88;;;8.93;;
18973;SDS011;9621;48.690;9.466;2023-06-22T01:44:43;14.35;;;9.10;;
18973;SDS011;9621;48.690;9.466;2023-06-22T01:47:12;14.18;;;9.30;;
18973;SDS011;9621;48.690;9.466;2023-06-22T01:49:40;14.18;;;9.43;;
18973;SDS011;9621;48.690;9.466;2023-06-22T01:52:07;14.20;;;8.80;;
18973;SDS011;9621;48.690;9.466;2023-06-22T01:54:34;12.63;;;9.07;;
18973;SDS011;9621;48.690;9.466;2023-06-22T01:57:00;13.93;;;9.57;;
18973;SDS011;9621;48.690;9.466;2023-06-22T01:59:29;11.93;;;9.07;;
18973;SDS011;9621;48.690;9.466;2023-06-22T02:02:02;15.02;;;9.85;;
18973;SDS011;9621;48.690;9.466;2023-06-22T02:04:34;11.85;;;9.35;;
18973;SDS011;9621;48.690;9.466;2023-06-22T02:07:09;14.25;;;8.52;;
18973;SDS011;9621;48.690;9.466;2023-06-22T02:09:41;10.55;;;7.65;;
18973;SDS011;9621;48.690;9.466;2023-06-22T02:12:10;11.55;;;8.68;;
18973;SDS011;9621;48.690;9.466;2023-06-22T02:14:39;17.65;;;8.35;;
18973;SDS011;9621;48.690;9.466;2023-06-22T02:17:07;13.13;;;7.85;;
18973;SDS011;9621;48.690;9.466;2023-06-22T02:19:37;15.13;;;8.40;;
18973;SDS011;9621;48.690;9.466;2023-06-22T02:22:04;11.77;;;8.15;;
18973;SDS011;9621;48.690;9.466;2023-06-22T02:24:31;14.60;;;9.75;;
18973;SDS011;9621;48.690;9.466;2023-06-22T02:26:58;13.15;;;8.68;;
18973;SDS011;9621;48.690;9.466;2023-06-22T02:29:26;12.80;;;8.18;;
18973;SDS011;9621;48.690;9.466;2023-06-22T02:31:54;11.20;;;8.57;;
18973;SDS011;9621;48.690;9.466;2023-06-22T02:34:21;16.50;;;8.95;;
18973;SDS011;9621;48.690;9.466;2023-06-22T02:36:49;14.90;;;9.07;;
18973;SDS011;9621;48.690;9.466;2023-06-22T02:39:18;17.30;;;9.20;;
18973;SDS011;9621;48.690;9.466;2023-06-22T02:41:47;22.90;;;9.60;;
18973;SDS011;9621;48.690;9.466;2023-06-22T02:44:14;14.85;;;9.25;;
18973;SDS011;9621;48.690;9.466;2023-06-22T02:46:41;13.10;;;9.50;;
18973;SDS011;9621;48.690;9.466;2023-06-22T02:49:09;12.55;;;8.25;;
18973;SDS011;9621;48.690;9.466;2023-06-22T02:51:37;18.50;;;8.80;;
18973;SDS011;9621;48.690;9.466;2023-06-22T02:54:07;14.20;;;8.52;;
18973;SDS011;9621;48.690;9.466;2023-06-22T02:56:33;13.07;;;8.30;;
18973;SDS011;9621;48.690;9.466;2023-06-22T02:59:01;18.80;;;9.02;;
18973;SDS011;9621;48.690;9.466;2023-06-22T03:01:28;13.13;;;8.75;;
18973;SDS011;9621;48.690;9.466;2023-06-22T03:04:03;18.35;;;9.02;;
18973;SDS011;9621;48.690;9.466;2023-06-22T03:06:30;13.82;;;9.10;;
18973;SDS011;9621;48.690;9.466;2023-06-22T03:08:58;16.80;;;9.65;;
18973;SDS011;9621;48.690;9.466;2023-06-22T03:11:28;17.15;;;8.43;;
18973;SDS011;9621;48.690;9.466;2023-06-22T03:13:54;16.13;;;8.60;;
18973;SDS011;9621;48.690;9.466;2023-06-22T03:16:21;13.20;;;9.60;;
18973;SDS011;9621;48.690;9.466;2023-06-22T03:18:48;14.48;;;9.02;;
18973;SDS011;9621;48.690;9.466;2023-06-22T03:21:15;15.80;;;9.55;;
18973;SDS011;9621;48.690;9.466;2023-06-22T03:23:42;13.00;;;8.93;;
18973;SDS011;9621;48.690;9.466;2023-06-22T03:26:09;16.88;;;9.63;;
18973;SDS011;9621;48.690;9.466;2023-06-22T03:28:38;15.82;;;9.68;;
18973;SDS011;9621;48.690;9.466;2023-06-22T03:31:05;12.23;;;8.88;;
18973;SDS011;9621;48.690;9.466;2023-06-22T03:33:32;15.85;;;9.15;;
18973;SDS011;9621;48.690;9.466;2023-06-22T03:35:59;14.65;;;8.95;;
18973;SDS011;9621;48.690;9.466;2023-06-22T03:38:26;14.85;;;9.20;;
18973;SDS011;9621;48.690;9.466;2023-06-22T03:40:53;16.88;;;9.45;;
18973;SDS011;9621;48.690;9.466;2023-06-22T03:43:20;13.00;;;9.05;;
18973;SDS011;9621;48.690;9.466;2023-06-22T03:45:49;15.95;;;9.43;;
18973;SDS011;9621;48.690;9.466;2023-06-22T03:48:16;16.38;;;9.40;;
18973;SDS011;9621;48.690;9.466;2023-06-22T03:50:43;15.80;;;9.07;;
18973;SDS011;9621;48.690;9.466;2023-06-22T03:53:10;13.48;;;9.02;;
18973;SDS011;9621;48.690;9.466;2023-06-22T03:55:40;14.95;;;10.38;;
18973;SDS011;9621;48.690;9.466;2023-06-22T03:58:13;13.20;;;9.48;;
18973;SDS011;9621;48.690;9.466;2023-06-22T04:00:40;15.52;;;9.60;;
18973;SDS011;9621;48.690;9.466;2023-06-22T04:03:09;14.45;;;9.68;;
18973;SDS011;9621;48.690;9.466;2023-06-22T04:05:37;14.95;;;9.27;;
18973;SDS011;9621;48.690;9.466;2023-06-22T04:08:04;15.25;;;9.82;;
18973;SDS011;9621;48.690;9.466;2023-06-22T04:10:32;13.18;;;8.38;;
18973;SDS011;9621;48.690;9.466;2023-06-22T04:12:59;11.75;;;8.80;;
18973;SDS011;9621;48.690;9.466;2023-06-22T04:15:26;11.77;;;8.20;;
18973;SDS011;9621;48.690;9.466;2023-06-22T04:17:54;13.98;;;9.15;;
18973;SDS011;9621;48.690;9.466;2023-06-22T04:20:22;13.48;;;9.23;;
18973;SDS011;9621;48.690;9.466;2023-06-22T04:22:50;15.73;;;9.32;;
18973;SDS011;9621;48.690;9.466;2023-06-22T04:25:17;17.52;;;10.25;;
18973;SDS011;9621;48.690;9.466;2023-06-22T04:27:45;21.85;;;10.95;;
18973;SDS011;9621;48.690;9.466;2023-06-22T04:30:12;14.82;;;10.63;;
18973;SDS011;9621;48.690;9.466;2023-06-22T04:32:40;17.00;;;10.88;;
18973;SDS011;9621;48.690;9.466;2023-06-22T04:35:07;17.65;;;10.65;;
18973;SDS011;9621;48.690;9.466;2023-06-22T04:37:35;16.35;;;9.90;;
18973;SDS011;9621;48.690;9.466;2023-06-22T04:40:03;14.43;;;9.65;;
18973;SDS011;9621;48.690;9.466;2023-06-22T04:42:30;18.50;;;9.75;;
18973;SDS011;9621;48.690;9.466;2023-06-22T04:44:58;15.50;;;9.98;;
18973;SDS011;9621;48.690;9.466;2023-06-22T04:47:24;15.05;;;9.70;;
18973;SDS011;9621;48.690;9.466;2023-06-22T04:49:51;15.05;;;10.30;;
18973;SDS011;9621;48.690;9.466;2023-06-22T04:52:18;16.13;;;10.00;;
18973;SDS011;9621;48.690;9.466;2023-06-22T04:54:46;13.90;;;9.43;;
18973;SDS011;9621;48.690;9.466;2023-06-22T04:57:15;15.55;;;8.50;;
18973;SDS011;9621;48.690;9.466;2023-06-22T04:59:42;11.05;;;7.80;;
18973;SDS011;9621;48.690;9.466;2023-06-22T05:02:09;11.77;;;8.43;;
18973;SDS011;9621;48.690;9.466;2023-06-22T05:04:37;13.50;;;9.07;;
18973;SDS011;9621;48.690;9.466;2023-06-22T05:07:04;13.05;;;8.65;;
18973;SDS011;9621;48.690;9.466;2023-06-22T05:09:32;14.30;;;8.68;;
18973;SDS011;9621;48.690;9.466;2023-06-22T05:12:01;10.15;;;8.65;;
18973;SDS011;9621;48.690;9.466;2023-06-22T05:14:29;11.27;;;7.75;;
18973;SDS011;9621;48.690;9.466;2023-06-22T05:16:56;12.75;;;7.93;;
18973;SDS011;9621;48.690;9.466;2023-06-22T05:19:25;12.38;;;8.13;;
18973;SDS011;9621;48.690;9.466;2023-06-22T05:21:56;11.75;;;7.90;;
18973;SDS011;9621;48.690;9.466;2023-06-22T05:24:23;11.18;;;7.35;;
18973;SDS011;9621;48.690;9.466;2023-06-22T05:26:50;14.20;;;8.45;;
18973;SDS011;9621;48.690;9.466;2023-06-22T05:29:18;11.63;;;7.43;;
18973;SDS011;9621;48.690;9.466;2023-06-22T05:31:45;12.07;;;7.18;;
18973;SDS011;9621;48.690;9.466;2023-06-22T05:34:12;11.52;;;7.00;;
18973;SDS011;9621;48.690;9.466;2023-06-22T05:36:39;9.80;;;6.57;;
18973;SDS011;9621;48.690;9.466;2023-06-22T05:39:12;8.52;;;6.57;;
18973;SDS011;9621;48.690;9.466;2023-06-22T05:41:40;10.25;;;7.53;;
18973;SDS011;9621;48.690;9.466;2023-06-22T05:44:08;9.15;;;6.50;;
18973;SDS011;9621;48.690;9.466;2023-06-22T05:46:36;17.40;;;6.10;;
18973;SDS011;9621;48.690;9.466;2023-06-22T05:49:03;10.38;;;6.35;;
18973;SDS011;9621;48.690;9.466;2023-06-22T05:51:30;7.75;;;5.43;;
18973;SDS011;9621;48.690;9.466;2023-06-22T05:53:56;10.35;;;6.18;;
18973;SDS011;9621;48.690;9.466;2023-06-22T05:56:23;9.38;;;5.88;;
18973;SDS011;9621;48.690;9.466;2023-06-22T05:58:50;8.90;;;5.97;;
18973;SDS011;9621;48.690;9.466;2023-06-22T06:01:17;6.80;;;5.10;;
18973;SDS011;9621;48.690;9.466;2023-06-22T06:03:48;9.65;;;5.15;;
18973;SDS011;9621;48.690;9.466;2023-06-22T06:06:15;8.93;;;5.03;;
18973;SDS011;9621;48.690;9.466;2023-06-22T06:08:42;13.52;;;5.50;;
18973;SDS011;9621;48.690;9.466;2023-06-22T06:11:09;10.73;;;6.00;;
18973;SDS011;9621;48.690;9.466;2023-06-22T06:13:35;9.85;;;4.95;;
18973;SDS011;9621;48.690;9.466;2023-06-22T06:16:02;10.93;;;5.22;;
18973;SDS011;9621;48.690;9.466;2023-06-22T06:18:29;8.30;;;5.28;;
18973;SDS011;9621;48.690;9.466;2023-06-22T06:20:58;9.77;;;5.22;;
18973;SDS011;9621;48.690;9.466;2023-06-22T06:23:24;11.43;;;5.03;;
18973;SDS011;9621;48.690;9.466;2023-06-22T06:25:51;9.18;;;4.63;;
18973;SDS011;9621;48.690;9.466;2023-06-22T06:28:18;10.63;;;4.82;;
18973;SDS011;9621;48.690;9.466;2023-06-22T06:30:45;8.68;;;4.75;;
18973;SDS011;9621;48.690;9.466;2023-06-22T06:33:12;7.05;;;4.70;;
18973;SDS011;9621;48.690;9.466;2023-06-22T06:35:39;8.52;;;4.57;;
18973;SDS011;9621;48.690;9.466;2023-06-22T06:38:07;10.00;;;4.47;;
18973;SDS011;9621;48.690;9.466;2023-06-22T06:40:34;10.32;;;4.65;;
18973;SDS011;9621;48.690;9.466;2023-06-22T06:43:01;8.05;;;4.70;;
18973;SDS011;9621;48.690;9.466;2023-06-22T06:45:28;8.73;;;4.10;;
18973;SDS011;9621;48.690;9.466;2023-06-22T06:47:58;5.65;;;4.75;;
18973;SDS011;9621;48.690;9.466;2023-06-22T06:50:24;6.07;;;4.10;;
18973;SDS011;9621;48.690;9.466;2023-06-22T06:52:51;7.30;;;4.53;;
18973;SDS011;9621;48.690;9.466;2023-06-22T06:55:19;7.15;;;4.03;;
18973;SDS011;9621;48.690;9.466;2023-06-22T06:57:50;6.10;;;3.67;;
18973;SDS011;9621;48.690;9.466;2023-06-22T07:00:18;6.35;;;4.10;;
18973;SDS011;9621;48.690;9.466;2023-06-22T07:02:46;10.93;;;3.90;;
18973;SDS011;9621;48.690;9.466;2023-06-22T07:05:13;7.40;;;3.70;;
18973;SDS011;9621;48.690;9.466;2023-06-22T07:07:40;9.15;;;4.13;;
18973;SDS011;9621;48.690;9.466;2023-06-22T07:10:07;5.78;;;3.85;;
18973;SDS011;9621;48.690;9.466;2023-06-22T07:12:36;5.65;;;3.55;;
18973;SDS011;9621;48.690;9.466;2023-06-22T07:15:03;9.18;;;4.32;;
18973;SDS011;9621;48.690;9.466;2023-06-22T07:17:33;5.57;;;3.60;;
18973;SDS011;9621;48.690;9.466;2023-06-22T07:20:00;7.38;;;3.75;;
18973;SDS011;9621;48.690;9.466;2023-06-22T07:22:28;6.60;;;3.15;;
18973;SDS011;9621;48.690;9.466;2023-06-22T07:24:55;7.53;;;3.83;;
18973;SDS011;9621;48.690;9.466;2023-06-22T07:27:22;8.68;;;4.10;;
18973;SDS011;9621;48.690;9.466;2023-06-22T07:29:51;7.68;;;3.22;;
18973;SDS011;9621;48.690;9.466;2023-06-22T07:32:18;10.57;;;3.70;;
18973;SDS011;9621;48.690;9.466;2023-06-22T07:34:45;10.80;;;3.90;;
18973;SDS011;9621;48.690;9.466;2023-06-22T07:37:12;11.27;;;4.68;;
18973;SDS011;9621;48.690;9.466;2023-06-22T07:39:39;16.25;;;4.30;;
18973;SDS011;9621;48.690;9.466;2023-06-22T07:42:07;8.73;;;4.20;;
18973;SDS011;9621;48.690;9.466;2023-06-22T07:44:34;7.88;;;4.00;;
18973;SDS011;9621;48.690;9.466;2023-06-22T07:47:03;9.88;;;4.35;;
18973;SDS011;9621;48.690;9.466;2023-06-22T07:49:30;12.18;;;3.83;;
18973;SDS011;9621;48.690;9.466;2023-06-22T07:51:57;9.80;;;4.35;;
18973;SDS011;9621;48.690;9.466;2023-06-22T07:54:23;11.60;;;3.90;;
18973;SDS011;9621;48.690;9.466;2023-06-22T07:56:50;14.20;;;4.28;;
18973;SDS011;9621;48.690;9.466;2023-06-22T07:59:18;9.38;;;4.30;;
18973;SDS011;9621;48.690;9.466;2023-06-22T08:01:45;11.75;;;4.60;;
18973;SDS011;9621;48.690;9.466;2023-06-22T08:04:15;7.50;;;3.75;;
18973;SDS011;9621;48.690;9.466;2023-06-22T08:06:42;11.18;;;4.53;;
18973;SDS011;9621;48.690;9.466;2023-06-22T08:09:09;9.05;;;4.32;;
18973;SDS011;9621;48.690;9.466;2023-06-22T08:11:37;12.77;;;4.40;;
18973;SDS011;9621;48.690;9.466;2023-06-22T08:14:04;9.25;;;4.40;;
18973;SDS011;9621;48.690;9.466;2023-06-22T08:16:31;10.32;;;4.30;;
18973;SDS011;9621;48.690;9.466;2023-06-22T08:18:58;9.50;;;4.22;;
18973;SDS011;9621;48.690;9.466;2023-06-22T08:21:26;10.07;;;4.38;;
18973;SDS011;9621;48.690;9.466;2023-06-22T08:23:53;9.48;;;4.28;;
18973;SDS011;9621;48.690;9.466;2023-06-22T08:26:20;8.88;;;3.97;;
18973;SDS011;9621;48.690;9.466;2023-06-22T08:28:48;11.65;;;4.45;;
18973;SDS011;9621;48.690;9.466;2023-06-22T08:31:15;11.30;;;4.30;;
18973;SDS011;9621;48.690;9.466;2023-06-22T08:33:42;9.95;;;4.10;;
18973;SDS011;9621;48.690;9.466;2023-06-22T08:36:10;11.30;;;4.35;;
18973;SDS011;9621;48.690;9.466;2023-06-22T08:38:40;11.02;;;4.43;;
18973;SDS011;9621;48.690;9.466;2023-06-22T08:41:06;12.52;;;4.07;;
18973;SDS011;9621;48.690;9.466;2023-06-22T08:43:33;8.30;;;4.50;;
18973;SDS011;9621;48.690;9.466;2023-06-22T08:46:00;10.32;;;4.32;;
18973;SDS011;9621;48.690;9.466;2023-06-22T08:48:28;12.52;;;4.55;;
18973;SDS011;9621;48.690;9.466;2023-06-22T08:50:55;10.43;;;4.32;;
18973;SDS011;9621;48.690;9.466;2023-06-22T08:53:21;7.97;;;3.92;;
18973;SDS011;9621;48.690;9.466;2023-06-22T08:55:50;9.13;;;3.85;;
18973;SDS011;9621;48.690;9.466;2023-06-22T08:58:16;9.52;;;4.60;;
18973;SDS011;9621;48.690;9.466;2023-06-22T09:00:45;11.40;;;3.92;;
18973;SDS011;9621;48.690;9.466;2023-06-22T09:03:12;7.68;;;4.38;;
18973;SDS011;9621;48.690;9.466;2023-06-22T09:05:40;9.52;;;4.25;;
18973;SDS011;9621;48.690;9.466;2023-06-22T09:08:06;11.45;;;4.45;;
18973;SDS011;9621;48.690;9.466;2023-06-22T09:10:34;9.40;;;4.20;;
18973;SDS011;9621;48.690;9.466;2023-06-22T09:13:02;8.75;;;4.68;;
18973;SDS011;9621;48.690;9.466;2023-06-22T09:15:29;10.40;;;4.65;;
18973;SDS011;9621;48.690;9.466;2023-06-22T09:17:56;8.85;;;3.78;;
18973;SDS011;9621;48.690;9.466;2023-06-22T09:20:23;7.57;;;4.20;;
18973;SDS011;9621;48.690;9.466;2023-06-22T09:22:50;10.63;;;4.28;;
18973;SDS011;9621;48.690;9.466;2023-06-22T09:25:17;8.20;;;4.13;;
18973;SDS011;9621;48.690;9.466;2023-06-22T09:27:45;11.05;;;4.70;;
18973;SDS011;9621;48.690;9.466;2023-06-22T09:30:14;10.45;;;4.22;;
18973;SDS011;9621;48.690;9.466;2023-06-22T09:32:41;14.73;;;5.10;;
18973;SDS011;9621;48.690;9.466;2023-06-22T09:35:09;14.38;;;4.57;;
18973;SDS011;9621;48.690;9.466;2023-06-22T09:37:38;10.02;;;4.05;;
18973;SDS011;9621;48.690;9.466;2023-06-22T09:40:05;9.55;;;4.25;;
18973;SDS011;9621;48.690;9.466;2023-06-22T09:42:36;11.05;;;4.43;;
18973;SDS011;9621;48.690;9.466;2023-06-22T09:45:03;8.70;;;4.50;;
18973;SDS011;9621;48.690;9.466;2023-06-22T09:47:32;11.98;;;5.25;;
18973;SDS011;9621;48.690;9.466;2023-06-22T09:49:59;12.75;;;5.03;;
18973;SDS011;9621;48.690;9.466;2023-06-22T09:52:26;8.55;;;4.45;;
18973;SDS011;9621;48.690;9.466;2023-06-22T09:54:54;8.20;;;4.53;;
18973;SDS011;9621;48.690;9.466;2023-06-22T09:57:20;10.48;;;4.93;;
18973;SDS011;9621;48.690;9.466;2023-06-22T09:59:47;10.98;;;5.15;;
18973;SDS011;9621;48.690;9.466;2023-06-22T10:02:15;9.98;;;4.78;;
18973;SDS011;9621;48.690;9.466;2023-06-22T10:04:45;9.75;;;5.15;;
18973;SDS011;9621;48.690;9.466;2023-06-22T10:07:12;10.55;;;4.78;;
18973;SDS011;9621;48.690;9.466;2023-06-22T10:09:39;9.20;;;4.53;;
18973;SDS011;9621;48.690;9.466;2023-06-22T10:12:06;12.73;;;4.78;;
18973;SDS011;9621;48.690;9.466;2023-06-22T10:14:34;5.85;;;3.97;;
18973;SDS011;9621;48.690;9.466;2023-06-22T10:17:02;10.35;;;4.60;;
18973;SDS011;9621;48.690;9.466;2023-06-22T10:19:29;14.13;;;5.60;;
18973;SDS011;9621;48.690;9.466;2023-06-22T10:21:57;14.68;;;6.30;;
18973;SDS011;9621;48.690;9.466;2023-06-22T10:24:24;12.20;;;5.35;;
18973;SDS011;9621;48.690;9.466;2023-06-22T10:26:51;16.00;;;5.53;;
18973;SDS011;9621;48.690;9.466;2023-06-22T10:29:18;12.70;;;5.45;;
18973;SDS011;9621;48.690;9.466;2023-06-22T10:31:46;9.65;;;4.95;;
18973;SDS011;9621;48.690;9.466;2023-06-22T10:34:13;11.88;;;5.63;;
18973;SDS011;9621;48.690;9.466;2023-06-22T10:36:40;10.00;;;4.68;;
18973;SDS011;9621;48.690;9.466;2023-06-22T10:39:08;11.35;;;4.88;;
18973;SDS011;9621;48.690;9.466;2023-06-22T10:41:35;10.80;;;4.88;;
18973;SDS011;9621;48.690;9.466;2023-06-22T10:44:02;10.63;;;5.25;;
18973;SDS011;9621;48.690;9.466;2023-06-22T10:46:29;13.07;;;5.63;;
18973;SDS011;9621;48.690;9.466;2023-06-22T10:48:56;13.07;;;5.82;;
18973;SDS011;9621;48.690;9.466;2023-06-22T10:51:23;14.43;;;5.80;;
18973;SDS011;9621;48.690;9.466;2023-06-22T10:53:50;12.07;;;5.60;;
18973;SDS011;9621;48.690;9.466;2023-06-22T10:56:18;10.82;;;5.38;;
18973;SDS011;9621;48.690;9.466;2023-06-22T10:58:45;10.38;;;5.55;;
18973;SDS011;9621;48.690;9.466;2023-06-22T11:01:12;11.35;;;5.35;;
18973;SDS011;9621;48.690;9.466;2023-06-22T11:03:40;17.73;;;5.45;;
18973;SDS011;9621;48.690;9.466;2023-06-22T11:06:07;10.40;;;5.25;;
18973;SDS011;9621;48.690;9.466;2023-06-22T11:08:33;14.88;;;6.03;;
18973;SDS011;9621;48.690;9.466;2023-06-22T11:11:00;14.27;;;4.80;;
18973;SDS011;9621;48.690;9.466;2023-06-22T11:13:29;9.38;;;4.75;;
18973;SDS011;9621;48.690;9.466;2023-06-22T11:15:55;14.20;;;4.35;;
18973;SDS011;9621;48.690;9.466;2023-06-22T11:18:22;10.85;;;5.00;;
18973;SDS011;9621;48.690;9.466;2023-06-22T11:20:49;15.40;;;4.88;;
18973;SDS011;9621;48.690;9.466;2023-06-22T11:23:16;14.65;;;5.40;;
18973;SDS011;9621;48.690;9.466;2023-06-22T11:25:44;10.20;;;5.03;;
18973;SDS011;9621;48.690;9.466;2023-06-22T11:28:11;11.25;;;4.75;;
18973;SDS011;9621;48.690;9.466;2023-06-22T11:30:39;12.07;;;5.47;;
18973;SDS011;9621;48.690;9.466;2023-06-22T11:33:06;16.92;;;5.20;;
18973;SDS011;9621;48.690;9.466;2023-06-22T11:35:33;13.68;;;5.10;;
18973;SDS011;9621;48.690;9.466;2023-06-22T11:38:00;11.68;;;4.80;;
18973;SDS011;9621;48.690;9.466;2023-06-22T11:40:28;11.55;;;5.18;;
18973;SDS011;9621;48.690;9.466;2023-06-22T11:42:55;13.25;;;4.68;;
18973;SDS011;9621;48.690;9.466;2023-06-22T11:45:22;14.63;;;5.30;;
18973;SDS011;9621;48.690;9.466;2023-06-22T11:47:50;12.88;;;5.45;;
18973;SDS011;9621;48.690;9.466;2023-06-22T11:50:18;12.57;;;5.65;;
18973;SDS011;9621;48.690;9.466;2023-06-22T11:52:45;13.70;;;5.68;;
18973;SDS011;9621;48.690;9.466;2023-06-22T11:55:11;18.58;;;5.10;;
18973;SDS011;9621;48.690;9.466;2023-06-22T11:57:52;15.07;;;5.15;;
18973;SDS011;9621;48.690;9.466;2023-06-22T12:00:20;14.40;;;5.40;;
18973;SDS011;9621;48.690;9.466;2023-06-22T12:02:50;15.20;;;5.78;;
18973;SDS011;9621;48.690;9.466;2023-06-22T12:05:18;13.80;;;6.68;;
18973;SDS011;9621;48.690;9.466;2023-06-22T12:07:47;14.27;;;6.47;;
18973;SDS011;9621;48.690;9.466;2023-06-22T12:10:14;17.70;;;7.22;;
18973;SDS011;9621;48.690;9.466;2023-06-22T12:12:41;13.65;;;5.57;;
18973;SDS011;9621;48.690;9.466;2023-06-22T12:15:08;15.40;;;5.80;;
18973;SDS011;9621;48.690;9.466;2023-06-22T12:17:36;12.70;;;5.70;;
18973;SDS011;9621;48.690;9.466;2023-06-22T12:20:06;12.10;;;4.72;;
18973;SDS011;9621;48.690;9.466;2023-06-22T12:22:34;10.38;;;4.20;;
18973;SDS011;9621;48.690;9.466;2023-06-22T12:25:03;12.30;;;5.47;;
18973;SDS011;9621;48.690;9.466;2023-06-22T12:27:30;13.40;;;4.90;;
18973;SDS011;9621;48.690;9.466;2023-06-22T12:29:57;14.70;;;5.30;;
18973;SDS011;9621;48.690;9.466;2023-06-22T12:32:24;12.15;;;4.88;;
18973;SDS011;9621;48.690;9.466;2023-06-22T12:34:51;19.08;;;5.35;;
18973;SDS011;9621;48.690;9.466;2023-06-22T12:37:19;13.88;;;5.00;;
18973;SDS011;9621;48.690;9.466;2023-06-22T12:39:46;11.40;;;5.13;;
18973;SDS011;9621;48.690;9.466;2023-06-22T12:42:13;13.43;;;4.60;;
18973;SDS011;9621;48.690;9.466;2023-06-22T12:44:41;13.25;;;4.43;;
18973;SDS011;9621;48.690;9.466;2023-06-22T12:47:08;10.90;;;4.95;;
18973;SDS011;9621;48.690;9.466;2023-06-22T12:49:36;13.30;;;4.78;;
18973;SDS011;9621;48.690;9.466;2023-06-22T12:52:08;12.35;;;5.07;;
18973;SDS011;9621;48.690;9.466;2023-06-22T12:54:37;12.80;;;4.80;;
18973;SDS011;9621;48.690;9.466;2023-06-22T12:57:04;10.32;;;4.82;;
18973;SDS011;9621;48.690;9.466;2023-06-22T12:59:32;8.55;;;4.20;;
18973;SDS011;9621;48.690;9.466;2023-06-22T13:01:59;12.25;;;4.88;;
18973;SDS011;9621;48.690;9.466;2023-06-22T13:04:26;8.80;;;4.57;;
18973;SDS011;9621;48.690;9.466;2023-06-22T13:06:53;14.38;;;4.72;;
18973;SDS011;9621;48.690;9.466;2023-06-22T13:09:20;9.98;;;4.82;;
18973;SDS011;9621;48.690;9.466;2023-06-22T13:11:48;13.40;;;5.10;;
18973;SDS011;9621;48.690;9.466;2023-06-22T13:14:15;11.82;;;4.78;;
18973;SDS011;9621;48.690;9.466;2023-06-22T13:16:42;13.15;;;5.25;;
18973;SDS011;9621;48.690;9.466;2023-06-22T13:19:09;23.70;;;5.38;;
18973;SDS011;9621;48.690;9.466;2023-06-22T13:21:36;12.20;;;5.45;;
18973;SDS011;9621;48.690;9.466;2023-06-22T13:24:03;15.63;;;5.30;;
18973;SDS011;9621;48.690;9.466;2023-06-22T13:26:32;12.55;;;5.28;;
18973;SDS011;9621;48.690;9.466;2023-06-22T13:29:01;12.98;;;4.75;;
18973;SDS011;9621;48.690;9.466;2023-06-22T13:31:28;13.85;;;4.95;;
18973;SDS011;9621;48.690;9.466;2023-06-22T13:33:55;9.15;;;4.47;;
18973;SDS011;9621;48.690;9.466;2023-06-22T13:36:22;13.32;;;4.43;;
18973;SDS011;9621;48.690;9.466;2023-06-22T13:38:49;14.10;;;5.55;;
18973;SDS011;9621;48.690;9.466;2023-06-22T13:41:16;14.60;;;4.57;;
18973;SDS011;9621;48.690;9.466;2023-06-22T13:43:43;13.07;;;5.30;;
18973;SDS011;9621;48.690;9.466;2023-06-22T13:46:11;9.98;;;5.20;;
18973;SDS011;9621;48.690;9.466;2023-06-22T13:48:38;14.75;;;4.68;;
18973;SDS011;9621;48.690;9.466;2023-06-22T13:51:05;13.00;;;5.00;;
18973;SDS011;9621;48.690;9.466;2023-06-22T13:53:32;12.60;;;4.85;;
18973;SDS011;9621;48.690;9.466;2023-06-22T13:55:59;14.32;;;5.50;;
18973;SDS011;9621;48.690;9.466;2023-06-22T13:58:26;14.60;;;4.85;;
18973;SDS011;9621;48.690;9.466;2023-06-22T14:00:53;13.40;;;5.07;;
18973;SDS011;9621;48.690;9.466;2023-06-22T14:03:21;12.60;;;4.82;;
18973;SDS011;9621;48.690;9.466;2023-06-22T14:05:48;14.80;;;4.90;;
18973;SDS011;9621;48.690;9.466;2023-06-22T14:08:15;12.82;;;4.72;;
18973;SDS011;9621;48.690;9.466;2023-06-22T14:10:42;11.40;;;4.80;;
18973;SDS011;9621;48.690;9.466;2023-06-22T14:13:09;13.98;;;4.75;;
18973;SDS011;9621;48.690;9.466;2023-06-22T14:15:36;12.02;;;4.60;;
18973;SDS011;9621;48.690;9.466;2023-06-22T14:18:03;12.23;;;4.90;;
18973;SDS011;9621;48.690;9.466;2023-06-22T14:20:31;11.85;;;4.60;;
18973;SDS011;9621;48.690;9.466;2023-06-22T14:22:58;10.38;;;3.60;;
18973;SDS011;9621;48.690;9.466;2023-06-22T14:25:25;16.02;;;4.68;;
18973;SDS011;9621;48.690;9.466;2023-06-22T14:27:52;9.13;;;4.43;;
18973;SDS011;9621;48.690;9.466;2023-06-22T14:30:19;10.40;;;3.90;;
18973;SDS011;9621;48.690;9.466;2023-06-22T14:32:46;12.15;;;4.00;;
18973;SDS011;9621;48.690;9.466;2023-06-22T14:35:13;11.85;;;4.05;;
18973;SDS011;9621;48.690;9.466;2023-06-22T14:37:41;13.25;;;3.95;;
18973;SDS011;9621;48.690;9.466;2023-06-22T14:40:08;17.83;;;4.25;;
18973;SDS011;9621;48.690;9.466;2023-06-22T14:42:36;10.23;;;4.70;;
18973;SDS011;9621;48.690;9.466;2023-06-22T14:45:03;10.68;;;4.45;;
18973;SDS011;9621;48.690;9.466;2023-06-22T14:47:30;10.50;;;4.07;;
18973;SDS011;9621;48.690;9.466;2023-06-22T14:49:57;11.95;;;4.57;;
18973;SDS011;9621;48.690;9.466;2023-06-22T14:52:25;13.55;;;4.40;;